Time;durP1;ratioP1;P1;durP2;ratioP2;P2;SDS_P1;SDS_P2;PMS_P1;PMS_P2;Temp;Humidity;BMP_temperature;BMP_pressure;BME280_temperature;BME280_humidity;BME280_pressure;Samples;Min_cycle;Max_cycle;Signal;HPM_P1;HPM_P2
2022/10/23 00:02:37;;;;;;;9.37;5.93;;;12.60;99.90;;;;;;5096782;28;20388;-78
2022/10/23 00:05:22;;;;;;;9.57;7.47;;;12.50;99.90;;;;;;5096795;28;20432;-78
2022/10/23 00:08:07;;;;;;;17.17;6.30;;;12.50;99.90;;;;;;5097082;28;20414;-78
2022/10/23 00:10:51;;;;;;;11.90;6.00;;;12.40;99.90;;;;;;5096936;28;20950;-78
2022/10/23 00:13:35;;;;;;;6.17;5.57;;;12.40;99.90;;;;;;5095427;28;20792;-79
2022/10/23 00:16:19;;;;;;;7.43;5.43;;;12.30;99.90;;;;;;5097458;28;20442;-79
2022/10/23 00:19:04;;;;;;;6.40;4.60;;;12.20;99.90;;;;;;5098110;28;20385;-79
2022/10/23 00:21:48;;;;;;;5.27;4.47;;;12.00;99.90;;;;;;5097978;28;20392;-79
2022/10/23 00:24:33;;;;;;;6.60;4.20;;;12.00;99.90;;;;;;5098628;28;20412;-79
2022/10/23 00:27:17;;;;;;;6.57;4.67;;;11.80;99.90;;;;;;5098660;28;20463;-79
2022/10/23 00:30:03;;;;;;;18.97;4.17;;;11.80;99.90;;;;;;5099036;28;20392;-79
2022/10/23 00:32:48;;;;;;;8.00;4.50;;;11.70;99.90;;;;;;5098086;28;20462;-79
2022/10/23 00:35:32;;;;;;;4.50;4.10;;;11.60;99.90;;;;;;5098542;28;20377;-80
2022/10/23 00:38:16;;;;;;;20.83;5.13;;;11.60;99.90;;;;;;5097171;28;20517;-80
2022/10/23 00:41:01;;;;;;;14.00;4.87;;;11.50;99.90;;;;;;5098234;28;20475;-79
2022/10/23 00:44:05;;;;;;;4.73;3.87;;;11.50;99.90;;;;;;5098616;28;20419;-80
2022/10/23 00:46:49;;;;;;;9.63;4.67;;;11.50;99.90;;;;;;5098961;28;20910;-79
2022/10/23 00:49:34;;;;;;;4.43;3.97;;;11.50;99.90;;;;;;5098528;28;20392;-79
2022/10/23 00:52:18;;;;;;;7.90;5.80;;;11.60;99.90;;;;;;5097734;28;20506;-79
2022/10/23 00:55:03;;;;;;;5.40;4.03;;;11.60;99.90;;;;;;5097709;28;20392;-79
2022/10/23 00:57:49;;;;;;;4.87;4.33;;;11.50;99.90;;;;;;5098190;28;20419;-80
2022/10/23 01:00:53;;;;;;;4.80;4.40;;;11.50;99.90;;;;;;5098410;28;20465;-80
2022/10/23 01:03:37;;;;;;;12.33;4.53;;;11.50;99.90;;;;;;5096820;28;20431;-79
2022/10/23 01:06:35;;;;;;;8.03;4.50;;;11.40;99.90;;;;;;5097516;28;20419;-79
2022/10/23 01:09:30;;;;;;;11.33;5.03;;;11.40;99.90;;;;;;5097200;28;20892;-79
2022/10/23 01:12:33;;;;;;;8.50;3.90;;;11.30;99.90;;;;;;5096528;28;20418;-79
2022/10/23 01:15:24;;;;;;;6.97;4.23;;;11.30;99.90;;;;;;5097053;28;20429;-79
2022/10/23 01:18:24;;;;;;;6.30;4.90;;;11.40;99.90;;;;;;5095915;28;20438;-79
2022/10/23 01:21:13;;;;;;;4.87;3.63;;;11.30;99.90;;;;;;5101107;28;20434;-79
2022/10/23 01:24:25;;;;;;;5.77;3.70;;;11.30;99.90;;;;;;5101470;28;20424;-79
2022/10/23 01:27:21;;;;;;;5.33;3.93;;;11.20;99.90;;;;;;5100109;28;20425;-79
2022/10/23 01:30:10;;;;;;;6.43;5.30;;;11.30;99.90;;;;;;5099912;28;20454;-79
2022/10/23 01:33:04;;;;;;;5.67;4.27;;;11.30;99.90;;;;;;5100839;28;20466;-79
2022/10/23 01:35:52;;;;;;;8.53;4.00;;;11.30;99.90;;;;;;5100868;28;20385;-79
2022/10/23 01:38:43;;;;;;;7.70;3.73;;;11.20;99.90;;;;;;5099712;28;20430;-79
2022/10/23 01:41:35;;;;;;;13.53;4.80;;;11.20;99.90;;;;;;5100248;28;20426;-80
2022/10/23 01:44:43;;;;;;;15.20;7.40;;;11.10;99.90;;;;;;5100689;28;20411;-80
2022/10/23 01:47:32;;;;;;;6.00;4.33;;;11.10;99.90;;;;;;5103364;28;20446;-80
2022/10/23 01:50:20;;;;;;;4.00;3.60;;;11.10;99.90;;;;;;5100247;28;20571;-80
2022/10/23 01:53:05;;;;;;;5.80;4.70;;;11.20;99.90;;;;;;5100332;28;20443;-79
2022/10/23 01:55:49;;;;;;;27.23;13.53;;;11.20;99.90;;;;;;5100729;28;20380;-79
2022/10/23 01:58:35;;;;;;;20.83;8.53;;;11.20;99.90;;;;;;5099819;28;20729;-79
2022/10/23 02:01:23;;;;;;;35.83;11.50;;;11.20;99.90;;;;;;5100608;28;20431;-79
2022/10/23 02:04:11;;;;;;;16.10;7.10;;;11.20;99.90;;;;;;5099750;28;20395;-79
2022/10/23 02:06:55;;;;;;;4.13;3.30;;;11.20;99.90;;;;;;5100612;28;20385;-79
2022/10/23 02:09:39;;;;;;;6.87;4.73;;;11.10;99.90;;;;;;5100952;28;20519;-80
2022/10/23 02:12:40;;;;;;;4.67;4.23;;;11.20;99.90;;;;;;5104138;28;20482;-79
2022/10/23 02:15:57;;;;;;;7.47;4.27;;;11.30;99.90;;;;;;5106434;28;20449;-80
2022/10/23 02:18:56;;;;;;;9.73;4.90;;;11.50;99.90;;;;;;5103359;28;20518;-79
2022/10/23 02:21:54;;;;;;;7.70;4.53;;;11.50;99.90;;;;;;5104002;28;20454;-80
2022/10/23 02:24:43;;;;;;;7.60;4.13;;;11.60;99.90;;;;;;5103633;28;20385;-79
2022/10/23 02:27:46;;;;;;;6.93;6.00;;;11.60;99.90;;;;;;5101756;28;20402;-79
2022/10/23 02:30:32;;;;;;;11.33;4.23;;;11.70;99.90;;;;;;5099923;28;20733;-80
2022/10/23 02:33:18;;;;;;;3.97;3.57;;;11.70;99.90;;;;;;5099592;28;20525;-79
2022/10/23 02:36:02;;;;;;;9.03;4.60;;;11.70;99.90;;;;;;5098869;28;20391;-79
2022/10/23 02:38:46;;;;;;;5.23;4.33;;;11.70;99.90;;;;;;5099532;28;20392;-80
2022/10/23 02:41:52;;;;;;;9.77;4.97;;;11.80;99.90;;;;;;5099057;28;20507;-79
2022/10/23 02:45:02;;;;;;;4.90;3.83;;;11.70;99.90;;;;;;5098413;28;20408;-79
2022/10/23 02:48:16;;;;;;;4.87;4.43;;;11.70;99.90;;;;;;5099233;28;20380;-79
2022/10/23 02:51:10;;;;;;;8.77;5.27;;;11.70;99.90;;;;;;5099836;28;20495;-79
2022/10/23 02:54:05;;;;;;;4.70;4.13;;;11.70;99.90;;;;;;5099292;28;20412;-80
2022/10/23 02:56:58;;;;;;;4.00;3.40;;;11.70;99.90;;;;;;5097613;28;20586;-80
2022/10/23 02:59:50;;;;;;;10.50;4.90;;;11.70;99.90;;;;;;5098975;28;20376;-79
2022/10/23 03:02:56;;;;;;;11.63;5.07;;;11.70;99.90;;;;;;5097899;28;20421;-80
2022/10/23 03:05:43;;;;;;;5.33;3.57;;;11.70;99.90;;;;;;5097744;28;20725;-80
2022/10/23 03:08:28;;;;;;;4.43;3.70;;;11.60;99.90;;;;;;5101882;28;20419;-79
2022/10/23 03:11:12;;;;;;;4.63;4.23;;;11.50;99.90;;;;;;5119863;28;20383;-79
2022/10/23 03:13:56;;;;;;;6.67;5.40;;;11.50;99.90;;;;;;5105924;28;20897;-79
2022/10/23 03:16:40;;;;;;;5.40;3.97;;;11.50;99.90;;;;;;5098970;28;20725;-80
2022/10/23 03:19:24;;;;;;;4.10;3.77;;;11.50;99.90;;;;;;5099633;28;20446;-79
2022/10/23 03:22:08;;;;;;;8.13;4.50;;;11.50;99.90;;;;;;5099535;28;20971;-80
2022/10/23 03:24:52;;;;;;;3.77;3.47;;;11.50;99.90;;;;;;5098444;28;20455;-79
2022/10/23 03:27:36;;;;;;;7.20;3.97;;;11.60;99.90;;;;;;5101831;28;20392;-79
2022/10/23 03:30:20;;;;;;;3.60;3.20;;;11.60;99.90;;;;;;5099333;28;20942;-79
2022/10/23 03:33:05;;;;;;;13.80;4.73;;;11.60;99.90;;;;;;5098717;28;20467;-80
2022/10/23 03:35:49;;;;;;;4.00;3.60;;;11.60;99.90;;;;;;5102051;28;20434;-80
2022/10/23 03:38:33;;;;;;;5.30;3.57;;;11.60;99.90;;;;;;5104487;28;20389;-79
2022/10/23 03:41:17;;;;;;;5.67;4.27;;;11.60;99.90;;;;;;5118714;28;20388;-78
2022/10/23 03:44:01;;;;;;;5.60;3.50;;;11.50;99.90;;;;;;5119011;28;20408;-78
2022/10/23 03:46:46;;;;;;;4.77;3.80;;;11.60;99.90;;;;;;5116560;28;20430;-78
2022/10/23 03:49:30;;;;;;;5.93;4.30;;;11.50;99.90;;;;;;5109153;28;20423;-79
2022/10/23 03:52:14;;;;;;;6.60;3.83;;;11.50;99.90;;;;;;5096799;28;20474;-79
2022/10/23 03:54:58;;;;;;;3.60;3.40;;;11.50;99.90;;;;;;5097309;28;20430;-79
2022/10/23 03:57:43;;;;;;;4.73;3.40;;;11.50;99.90;;;;;;5097826;28;20431;-79
2022/10/23 04:00:27;;;;;;;4.37;3.70;;;11.40;99.90;;;;;;5097732;28;20388;-80
2022/10/23 04:03:11;;;;;;;4.00;3.53;;;11.40;99.90;;;;;;5097921;28;20396;-79
2022/10/23 04:05:55;;;;;;;6.20;3.87;;;11.30;99.90;;;;;;5098301;28;20362;-80
2022/10/23 04:08:41;;;;;;;7.57;4.00;;;11.30;99.90;;;;;;5098445;28;20388;-79
2022/10/23 04:11:25;;;;;;;4.03;3.73;;;11.20;99.90;;;;;;5098685;28;20391;-80
2022/10/23 04:14:12;;;;;;;3.67;3.47;;;11.20;99.90;;;;;;5097233;28;20499;-80
2022/10/23 04:16:56;;;;;;;3.47;3.17;;;11.30;99.90;;;;;;5097877;28;20931;-80
2022/10/23 04:19:40;;;;;;;4.83;4.43;;;11.20;99.90;;;;;;5097392;28;20542;-80
2022/10/23 04:22:24;;;;;;;3.53;3.23;;;11.20;99.90;;;;;;5097909;28;20399;-79
2022/10/23 04:25:08;;;;;;;5.37;3.97;;;11.20;99.90;;;;;;5097640;28;20777;-79
2022/10/23 04:27:52;;;;;;;3.90;3.60;;;11.20;99.90;;;;;;5097273;28;20443;-79
2022/10/23 04:30:36;;;;;;;4.50;3.60;;;11.20;99.90;;;;;;5096434;28;20478;-79
2022/10/23 04:33:21;;;;;;;3.90;3.50;;;11.20;99.90;;;;;;5096527;28;20493;-79
2022/10/23 04:36:05;;;;;;;4.43;3.60;;;11.20;99.90;;;;;;5097138;28;20162;-79
2022/10/23 04:38:49;;;;;;;7.70;4.00;;;11.10;99.90;;;;;;5096925;28;20435;-79
2022/10/23 04:41:34;;;;;;;10.47;4.60;;;11.00;99.90;;;;;;5097286;28;20396;-79
2022/10/23 04:44:18;;;;;;;4.80;4.40;;;10.90;99.90;;;;;;5097845;28;20776;-79
2022/10/23 04:47:02;;;;;;;6.70;4.50;;;10.90;99.90;;;;;;5099207;28;20408;-79
2022/10/23 04:49:46;;;;;;;6.47;4.80;;;10.90;99.90;;;;;;5099370;28;20408;-79
2022/10/23 04:52:30;;;;;;;4.90;4.50;;;10.90;99.90;;;;;;5098421;28;20494;-80
2022/10/23 04:55:14;;;;;;;6.00;4.00;;;11.00;99.90;;;;;;5101514;28;20380;-79
2022/10/23 04:57:58;;;;;;;4.03;3.40;;;11.00;99.90;;;;;;5102968;28;20477;-79
2022/10/23 05:00:42;;;;;;;5.17;4.20;;;10.90;99.90;;;;;;5102701;28;20746;-79
2022/10/23 05:03:27;;;;;;;3.60;3.30;;;10.90;99.90;;;;;;5103204;28;20911;-79
2022/10/23 05:06:11;;;;;;;4.30;3.90;;;10.80;99.90;;;;;;5102320;28;20403;-79
2022/10/23 05:08:55;;;;;;;7.53;3.90;;;10.80;99.90;;;;;;5102747;28;20407;-80
2022/10/23 05:11:39;;;;;;;4.63;4.23;;;10.80;99.90;;;;;;5103221;28;20404;-80
2022/10/23 05:14:23;;;;;;;14.87;4.60;;;10.80;99.90;;;;;;5103488;28;20961;-80
2022/10/23 05:17:13;;;;;;;3.67;3.47;;;10.80;99.90;;;;;;5103403;28;20730;-79
2022/10/23 05:20:01;;;;;;;4.17;3.87;;;10.80;99.90;;;;;;5103321;28;20728;-80
2022/10/23 05:22:49;;;;;;;5.47;3.50;;;10.80;99.90;;;;;;5104354;28;20396;-80
2022/10/23 05:25:35;;;;;;;6.13;4.47;;;10.80;99.90;;;;;;5105648;28;20476;-80
2022/10/23 05:28:19;;;;;;;10.10;3.60;;;10.70;99.90;;;;;;5105142;28;20395;-79
2022/10/23 05:31:04;;;;;;;3.57;3.37;;;10.70;99.90;;;;;;5106045;28;20484;-79
2022/10/23 05:33:50;;;;;;;4.40;3.97;;;10.70;99.90;;;;;;5106163;28;21017;-80
2022/10/23 05:36:36;;;;;;;4.13;3.80;;;10.70;99.90;;;;;;5116311;28;20396;-79
2022/10/23 05:39:21;;;;;;;4.33;3.53;;;10.70;99.90;;;;;;5121100;28;20414;-79
2022/10/23 05:42:05;;;;;;;5.57;3.80;;;10.70;99.90;;;;;;5119638;28;20375;-79
2022/10/23 05:44:49;;;;;;;6.57;4.20;;;10.60;99.90;;;;;;5119244;28;20420;-79
2022/10/23 05:47:33;;;;;;;4.10;3.80;;;10.70;99.90;;;;;;5117822;28;20542;-79
2022/10/23 05:50:18;;;;;;;7.30;4.23;;;10.50;99.90;;;;;;5116423;28;20573;-80
2022/10/23 05:53:02;;;;;;;5.87;4.80;;;10.60;99.90;;;;;;5119411;28;20452;-78
2022/10/23 05:55:47;;;;;;;4.43;4.07;;;10.60;99.90;;;;;;5120318;28;20439;-79
2022/10/23 05:58:31;;;;;;;6.83;3.67;;;10.70;99.90;;;;;;5121124;28;20422;-79
2022/10/23 06:01:17;;;;;;;4.30;3.93;;;10.70;99.90;;;;;;5121046;28;20400;-79
2022/10/23 06:04:03;;;;;;;4.97;4.47;;;10.70;99.90;;;;;;5108543;28;20426;-79
2022/10/23 06:06:47;;;;;;;4.10;3.80;;;10.70;99.90;;;;;;5100746;28;20491;-80
2022/10/23 06:09:31;;;;;;;4.03;3.77;;;10.70;99.90;;;;;;5101492;28;20400;-79
2022/10/23 06:12:15;;;;;;;6.93;5.50;;;10.70;99.90;;;;;;5101646;28;20463;-80
2022/10/23 06:14:59;;;;;;;5.97;5.13;;;10.70;99.90;;;;;;5101900;28;20442;-79
2022/10/23 06:17:43;;;;;;;7.93;5.73;;;10.70;99.90;;;;;;5113841;28;20448;-78
2022/10/23 06:20:28;;;;;;;6.40;5.60;;;10.70;99.90;;;;;;5119520;28;20388;-77
2022/10/23 06:23:12;;;;;;;6.27;5.77;;;10.70;99.90;;;;;;5119726;28;20383;-76
2022/10/23 06:25:56;;;;;;;5.50;4.10;;;10.70;99.90;;;;;;5118623;28;20420;-78
2022/10/23 06:28:40;;;;;;;4.27;3.93;;;10.70;99.90;;;;;;5118712;28;20381;-78
2022/10/23 06:31:27;;;;;;;4.33;4.00;;;10.60;99.90;;;;;;5100845;28;20884;-79
2022/10/23 06:34:11;;;;;;;8.73;4.97;;;10.70;99.90;;;;;;5099805;28;20741;-79
2022/10/23 06:36:56;;;;;;;6.50;3.87;;;10.70;99.90;;;;;;5100076;28;20412;-78
2022/10/23 06:39:40;;;;;;;4.27;3.80;;;10.70;99.90;;;;;;5100163;28;20403;-79
2022/10/23 06:42:25;;;;;;;4.20;3.80;;;10.80;99.90;;;;;;5110673;28;20734;-79
2022/10/23 06:45:10;;;;;;;5.03;4.10;;;10.80;99.90;;;;;;5112591;28;20389;-79
2022/10/23 06:47:54;;;;;;;4.30;3.90;;;10.90;99.90;;;;;;5098884;28;20392;-79
2022/10/23 06:50:39;;;;;;;4.43;3.93;;;10.80;99.90;;;;;;5098993;28;20729;-80
2022/10/23 06:53:23;;;;;;;5.10;4.60;;;10.60;99.90;;;;;;5099140;28;20471;-79
2022/10/23 06:56:08;;;;;;;6.17;4.37;;;10.70;99.90;;;;;;5099583;28;20388;-79
2022/10/23 06:58:52;;;;;;;5.07;4.67;;;10.80;99.90;;;;;;5098431;28;20392;-80
2022/10/23 07:01:37;;;;;;;5.30;4.40;;;10.80;99.90;;;;;;5099970;28;20398;-79
2022/10/23 07:04:21;;;;;;;5.33;4.73;;;10.90;99.90;;;;;;5099484;28;20415;-79
2022/10/23 07:07:05;;;;;;;5.63;5.00;;;10.90;99.90;;;;;;5099637;28;20443;-79
2022/10/23 07:09:50;;;;;;;8.97;5.73;;;10.90;99.90;;;;;;5098611;28;20392;-79
2022/10/23 07:12:34;;;;;;;13.03;6.37;;;10.90;99.90;;;;;;5098972;28;20444;-79
2022/10/23 07:15:18;;;;;;;5.97;5.37;;;11.00;99.90;;;;;;5098284;28;20392;-80
2022/10/23 07:18:04;;;;;;;6.53;5.20;;;11.20;99.90;;;;;;5097932;28;20380;-78
2022/10/23 07:20:55;;;;;;;4.43;4.10;;;11.20;99.90;;;;;;5098272;28;20739;-79
2022/10/23 07:23:39;;;;;;;4.97;4.30;;;11.40;99.90;;;;;;5098617;28;20407;-80
2022/10/23 07:26:24;;;;;;;4.80;4.40;;;11.40;99.90;;;;;;5099167;28;20408;-80
2022/10/23 07:29:08;;;;;;;4.30;3.90;;;11.50;99.90;;;;;;5097428;28;20442;-80
2022/10/23 07:31:53;;;;;;;5.97;4.57;;;11.60;99.90;;;;;;5098309;28;20455;-80
2022/10/23 07:34:37;;;;;;;4.80;4.40;;;11.70;99.90;;;;;;5098065;28;20382;-79
2022/10/23 07:37:21;;;;;;;4.47;4.17;;;11.80;99.90;;;;;;5098157;28;20403;-79
2022/10/23 07:40:06;;;;;;;5.03;4.60;;;11.90;99.90;;;;;;5096805;28;20442;-78
2022/10/23 07:42:50;;;;;;;5.10;4.47;;;12.10;99.90;;;;;;5098168;28;20760;-78
2022/10/23 07:45:34;;;;;;;5.10;4.70;;;12.10;99.90;;;;;;5097367;28;20395;-79
2022/10/23 07:48:20;;;;;;;5.10;4.70;;;12.20;99.90;;;;;;5096834;28;20916;-78
2022/10/23 07:51:09;;;;;;;7.50;5.03;;;12.30;99.90;;;;;;5096901;28;20396;-78
2022/10/23 07:53:53;;;;;;;4.70;4.27;;;12.40;99.90;;;;;;5097195;28;20435;-78
2022/10/23 07:56:38;;;;;;;4.87;4.47;;;12.70;99.90;;;;;;5096496;28;20420;-79
2022/10/23 07:59:22;;;;;;;9.83;6.50;;;12.70;99.90;;;;;;5096978;28;20407;-79
2022/10/23 08:02:11;;;;;;;5.20;4.70;;;13.00;99.90;;;;;;5097505;28;20775;-78
2022/10/23 08:04:55;;;;;;;6.57;4.80;;;13.20;99.90;;;;;;5097414;28;20791;-79
2022/10/23 08:07:39;;;;;;;5.17;4.67;;;13.40;99.90;;;;;;5097993;28;20891;-79
2022/10/23 08:10:24;;;;;;;5.37;4.97;;;13.70;99.90;;;;;;5097084;28;20392;-80
2022/10/23 08:13:11;;;;;;;6.03;5.47;;;13.80;99.90;;;;;;5097611;28;20438;-80
2022/10/23 08:15:55;;;;;;;4.70;4.30;;;13.70;99.90;;;;;;5096571;28;20392;-80
2022/10/23 08:18:41;;;;;;;5.50;5.10;;;13.90;99.90;;;;;;5097407;28;20733;-80
2022/10/23 08:21:25;;;;;;;6.50;5.50;;;13.90;99.90;;;;;;5097912;28;20511;-80
2022/10/23 08:24:12;;;;;;;5.70;4.27;;;14.10;99.90;;;;;;5096220;28;20498;-79
2022/10/23 08:26:57;;;;;;;5.10;4.33;;;14.50;99.90;;;;;;5096752;28;20892;-79
2022/10/23 08:29:41;;;;;;;5.30;4.10;;;14.50;99.90;;;;;;5097950;28;20384;-79
2022/10/23 08:32:29;;;;;;;6.47;5.60;;;14.60;99.90;;;;;;5097459;28;20563;-80
2022/10/23 08:35:15;;;;;;;5.10;4.70;;;14.90;99.90;;;;;;5098107;28;20907;-80
2022/10/23 08:37:59;;;;;;;4.47;4.17;;;15.00;99.90;;;;;;5082584;28;20426;-78
2022/10/23 08:40:46;;;;;;;5.50;5.00;;;14.90;99.90;;;;;;5097176;28;20450;-80
2022/10/23 08:43:45;;;;;;;5.03;4.60;;;15.00;99.90;;;;;;5097485;28;20424;-80
2022/10/23 08:46:34;;;;;;;7.60;6.90;;;14.80;99.90;;;;;;5097307;28;20745;-76
2022/10/23 08:49:45;;;;;;;11.30;5.43;;;14.80;99.90;;;;;;5102907;28;20458;-77
2022/10/23 08:52:36;;;;;;;6.73;4.97;;;14.90;99.90;;;;;;5104673;28;20550;-78
2022/10/23 08:55:26;;;;;;;7.90;4.87;;;15.10;99.90;;;;;;5102756;28;20478;-77
2022/10/23 08:58:22;;;;;;;8.13;6.43;;;15.40;99.90;;;;;;5096627;28;20459;-80
2022/10/23 09:01:29;;;;;;;6.20;5.10;;;15.90;99.90;;;;;;5096816;28;20441;-78
2022/10/23 09:04:15;;;;;;;5.10;4.70;;;16.20;99.90;;;;;;5098027;28;20388;-79
2022/10/23 09:07:12;;;;;;;8.73;5.60;;;16.40;99.90;;;;;;5097384;28;20445;-78
2022/10/23 09:10:12;;;;;;;5.10;4.60;;;16.80;99.90;;;;;;5082823;28;20401;-79
2022/10/23 09:13:08;;;;;;;6.53;4.93;;;17.10;99.90;;;;;;5097771;28;20982;-79
2022/10/23 09:16:09;;;;;;;11.43;5.87;;;17.00;99.90;;;;;;5097911;28;20733;-79
2022/10/23 09:18:54;;;;;;;5.90;5.40;;;17.00;99.90;;;;;;5097692;28;20512;-79
2022/10/23 09:21:38;;;;;;;5.83;5.33;;;17.00;99.90;;;;;;5099231;28;20407;-79
2022/10/23 09:24:25;;;;;;;5.50;4.90;;;16.60;99.90;;;;;;5096365;28;20396;-78
2022/10/23 09:27:15;;;;;;;6.60;4.50;;;16.40;99.90;;;;;;5097054;28;20441;-79
2022/10/23 09:29:59;;;;;;;5.00;4.60;;;16.30;99.90;;;;;;5095577;28;20457;-77
2022/10/23 09:32:46;;;;;;;5.30;4.43;;;16.30;99.90;;;;;;5096582;28;20699;-79
2022/10/23 09:35:30;;;;;;;5.13;4.57;;;16.30;99.90;;;;;;5097103;28;20908;-78
2022/10/23 09:38:28;;;;;;;5.07;4.57;;;16.40;99.90;;;;;;5097059;28;20883;-77
2022/10/23 09:41:19;;;;;;;6.20;5.67;;;16.50;99.90;;;;;;5098833;28;20420;-77
2022/10/23 09:44:25;;;;;;;6.17;5.30;;;16.40;99.90;;;;;;5099517;28;20424;-77
2022/10/23 09:47:10;;;;;;;9.80;5.73;;;16.40;99.90;;;;;;5099691;28;20396;-78
2022/10/23 09:49:56;;;;;;;6.17;5.67;;;16.40;99.90;;;;;;5099073;28;20388;-78
2022/10/23 09:52:41;;;;;;;9.10;5.00;;;16.40;99.90;;;;;;5072739;28;20589;-77
2022/10/23 09:55:26;;;;;;;10.80;5.50;;;16.50;99.90;;;;;;5100160;28;20399;-77
2022/10/23 09:58:33;;;;;;;6.30;5.20;;;17.00;99.90;;;;;;5106205;28;20432;-77
2022/10/23 10:01:28;;;;;;;4.70;4.30;;;17.00;99.90;;;;;;5113151;28;20446;-78
2022/10/23 10:04:12;;;;;;;4.87;4.47;;;17.10;99.90;;;;;;5113870;28;20412;-77
2022/10/23 10:06:58;;;;;;;6.50;5.20;;;16.70;99.90;;;;;;5112179;28;20449;-78
2022/10/23 10:09:42;;;;;;;5.70;4.87;;;16.90;99.90;;;;;;5112559;28;20423;-78
2022/10/23 10:12:48;;;;;;;7.53;4.40;;;17.10;99.90;;;;;;5111062;28;20477;-78
2022/10/23 10:15:53;;;;;;;3.60;3.30;;;17.30;99.90;;;;;;5113078;28;20415;-79
2022/10/23 10:18:46;;;;;;;5.47;4.13;;;17.30;99.90;;;;;;5113555;28;20768;-78
2022/10/23 10:21:41;;;;;;;7.23;4.17;;;17.20;99.90;;;;;;5084138;28;20408;-79
2022/10/23 10:24:34;;;;;;;5.60;4.20;;;17.40;99.90;;;;;;5114845;28;20380;-79
2022/10/23 10:27:45;;;;;;;9.23;4.17;;;17.60;99.90;;;;;;5095680;28;20438;-79
2022/10/23 10:30:47;;;;;;;4.83;4.20;;;17.60;99.90;;;;;;5102521;28;20442;-80
2022/10/23 10:33:52;;;;;;;4.53;4.07;;;18.70;99.90;;;;;;5084811;28;20525;-80
2022/10/23 10:37:01;;;;;;;13.73;4.80;;;20.10;99.90;;;;;;5100962;28;20449;-80
2022/10/23 10:39:59;;;;;;;3.83;3.50;;;21.10;99.90;;;;;;5087635;28;20461;-80
2022/10/23 10:43:07;;;;;;;6.27;4.53;;;21.40;99.90;;;;;;5099397;28;20527;-80
2022/10/23 10:46:06;;;;;;;6.30;3.87;;;22.10;99.90;;;;;;5098738;28;20468;-80
2022/10/23 10:49:25;;;;;;;4.23;3.80;;;22.30;99.90;;;;;;5097908;28;20972;-80
2022/10/23 10:52:37;;;;;;;4.37;3.60;;;22.40;99.90;;;;;;5097666;28;20432;-80
2022/10/23 10:55:32;;;;;;;4.47;3.80;;;21.70;99.90;;;;;;5086214;28;20396;-80
2022/10/23 10:58:37;;;;;;;5.00;3.63;;;21.30;99.90;;;;;;5098336;28;20478;-79
2022/10/23 11:01:29;;;;;;;4.10;3.80;;;22.00;99.90;;;;;;5098296;28;20460;-80
2022/10/23 11:04:38;;;;;;;7.30;3.10;;;21.70;99.90;;;;;;5097897;28;20766;-79
2022/10/23 11:07:32;;;;;;;4.60;4.20;;;21.90;99.90;;;;;;5098181;28;20393;-79
2022/10/23 11:10:18;;;;;;;6.10;3.70;;;22.00;99.90;;;;;;5098890;28;20400;-79
2022/10/23 11:13:03;;;;;;;3.10;2.80;;;21.30;99.90;;;;;;5099647;28;20443;-79
2022/10/23 11:15:48;;;;;;;14.03;4.00;;;21.60;99.90;;;;;;5099791;28;20396;-79
2022/10/23 11:18:33;;;;;;;3.87;2.43;;;20.90;99.90;;;;;;5097207;28;20790;-79
2022/10/23 11:21:43;;;;;;;3.57;3.27;;;20.70;99.90;;;;;;5098147;28;20384;-79
2022/10/23 11:25:02;;;;;;;3.10;2.80;;;20.70;99.90;;;;;;5097086;28;20419;-78
2022/10/23 11:28:00;;;;;;;3.23;2.93;;;20.70;99.90;;;;;;5097616;28;20442;-78
2022/10/23 11:31:07;;;;;;;5.50;3.20;;;21.20;99.90;;;;;;5098657;28;20396;-78
2022/10/23 11:34:22;;;;;;;5.27;2.63;;;21.80;99.90;;;;;;5097614;28;20479;-78
2022/10/23 11:37:07;;;;;;;3.20;2.57;;;22.60;99.90;;;;;;5097913;28;20392;-79
2022/10/23 11:40:20;;;;;;;2.77;2.53;;;23.80;99.90;;;;;;5099509;28;20734;-77
2022/10/23 11:43:04;;;;;;;2.13;1.93;;;24.60;99.90;;;;;;5096415;28;20942;-81
2022/10/23 11:45:49;;;;;;;2.40;2.20;;;24.20;99.90;;;;;;5098103;28;20435;-80
2022/10/23 11:48:39;;;;;;;2.67;2.47;;;24.20;99.90;;;;;;5095656;28;20628;-79
2022/10/23 11:51:27;;;;;;;2.53;2.30;;;24.20;99.90;;;;;;5097135;28;20529;-79
2022/10/23 11:54:27;;;;;;;3.47;2.17;;;24.50;99.90;;;;;;5096399;28;20415;-79
2022/10/23 11:57:15;;;;;;;3.30;2.83;;;24.30;99.90;;;;;;5096784;28;20419;-80
2022/10/23 12:00:00;;;;;;;4.67;4.27;;;23.60;99.90;;;;;;5097639;28;20812;-80
2022/10/23 12:02:51;;;;;;;2.00;1.90;;;22.90;99.90;;;;;;5097676;28;20382;-80
2022/10/23 12:05:40;;;;;;;3.70;1.83;;;22.90;99.90;;;;;;5097637;28;20704;-79
2022/10/23 12:08:27;;;;;;;2.30;2.10;;;22.80;99.90;;;;;;5097145;28;20472;-80
2022/10/23 12:11:37;;;;;;;1.90;1.80;;;22.50;99.90;;;;;;5097281;28;20431;-79
2022/10/23 12:14:29;;;;;;;2.00;1.90;;;22.00;99.90;;;;;;5100403;28;20539;-78
2022/10/23 12:17:29;;;;;;;2.40;2.20;;;21.70;99.90;;;;;;5101056;28;20393;-79
2022/10/23 12:20:21;;;;;;;2.90;1.97;;;21.60;99.90;;;;;;5097572;28;20518;-79
2022/10/23 12:23:22;;;;;;;2.63;2.33;;;21.40;99.90;;;;;;5101146;28;20418;-77
2022/10/23 12:26:22;;;;;;;3.33;2.60;;;21.40;99.90;;;;;;5099767;28;20422;-81
2022/10/23 12:29:39;;;;;;;3.37;3.17;;;21.30;99.90;;;;;;5098997;28;20729;-80
2022/10/23 12:32:56;;;;;;;3.13;2.77;;;20.90;99.90;;;;;;5095972;28;20533;-78
2022/10/23 12:36:32;;;;;;;2.23;2.13;;;20.40;99.90;;;;;;5094300;28;20951;-77
2022/10/23 12:39:31;;;;;;;2.60;1.87;;;20.10;99.90;;;;;;5113822;28;20426;-80
2022/10/23 12:42:22;;;;;;;1.70;1.60;;;20.00;99.90;;;;;;5081431;28;20912;-79
2022/10/23 12:45:22;;;;;;;5.83;3.00;;;19.90;99.90;;;;;;5090752;28;20397;-80
2022/10/23 12:48:19;;;;;;;1.73;1.60;;;19.80;99.90;;;;;;5055853;28;20428;-78
2022/10/23 12:51:27;;;;;;;2.43;2.23;;;20.00;99.90;;;;;;5075744;28;20454;-78
2022/10/23 12:54:15;;;;;;;1.70;1.60;;;20.50;99.90;;;;;;5029436;28;20458;-79
2022/10/23 12:57:00;;;;;;;2.30;2.10;;;21.00;99.90;;;;;;5029266;28;20519;-80
2022/10/23 12:59:46;;;;;;;1.93;1.50;;;21.00;99.90;;;;;;5028240;28;20434;-80
2022/10/23 13:02:33;;;;;;;3.03;2.20;;;21.10;99.90;;;;;;5040693;28;20479;-80
2022/10/23 13:05:19;;;;;;;2.57;2.37;;;21.20;99.90;;;;;;4981035;28;20409;-80
2022/10/23 13:08:11;;;;;;;2.40;2.20;;;21.70;99.90;;;;;;4970647;28;20417;-79
2022/10/23 13:11:19;;;;;;;2.80;1.90;;;21.80;99.90;;;;;;4911864;29;20943;-82
2022/10/23 13:14:34;;;;;;;2.50;2.30;;;22.20;99.90;;;;;;4949123;29;20465;-80
2022/10/23 13:17:19;;;;;;;2.03;1.83;;;22.10;99.90;;;;;;4951560;29;20468;-79
2022/10/23 13:20:28;;;;;;;2.57;2.13;;;21.50;99.90;;;;;;4937877;29;20776;-81
2022/10/23 13:23:34;;;;;;;2.40;2.20;;;21.50;99.90;;;;;;4931826;29;20407;-82
2022/10/23 13:26:43;;;;;;;1.90;1.80;;;21.10;99.90;;;;;;4948956;29;20555;-79
2022/10/23 13:29:32;;;;;;;2.03;1.83;;;20.60;99.90;;;;;;4923630;29;20411;-80
2022/10/23 13:32:23;;;;;;;2.40;2.07;;;20.60;99.90;;;;;;4930877;29;20483;-79
2022/10/23 13:35:21;;;;;;;3.20;1.47;;;20.40;99.90;;;;;;4898550;29;20472;-80
2022/10/23 13:38:08;;;;;;;2.80;1.70;;;20.60;99.90;;;;;;4910014;29;20416;-80
2022/10/23 13:40:56;;;;;;;1.77;1.67;;;20.50;99.90;;;;;;4903876;29;20981;-80
2022/10/23 13:43:43;;;;;;;2.97;2.07;;;20.40;99.90;;;;;;4953966;29;20426;-79
2022/10/23 13:46:28;;;;;;;2.00;1.90;;;20.40;99.90;;;;;;4943731;29;20409;-80
2022/10/23 13:49:15;;;;;;;1.93;1.83;;;20.10;99.90;;;;;;4991296;28;20471;-80
2022/10/23 13:52:01;;;;;;;3.10;2.37;;;19.90;99.90;;;;;;4987130;28;20411;-79
2022/10/23 13:54:45;;;;;;;1.80;1.70;;;20.00;99.90;;;;;;4969753;29;20423;-79
2022/10/23 13:57:32;;;;;;;3.60;1.80;;;19.90;99.90;;;;;;4968983;29;20437;-81
2022/10/23 14:00:17;;;;;;;7.07;2.53;;;19.70;99.90;;;;;;4965370;29;20411;-80
2022/10/23 14:03:02;;;;;;;2.23;2.03;;;19.60;99.90;;;;;;4986213;28;20443;-79
2022/10/23 14:05:46;;;;;;;3.50;1.80;;;19.50;99.90;;;;;;4996215;28;20418;-79
2022/10/23 14:08:31;;;;;;;3.10;2.37;;;19.40;99.90;;;;;;5022860;28;20466;-80
2022/10/23 14:11:18;;;;;;;3.90;2.63;;;19.50;99.90;;;;;;5017729;28;20447;-78
2022/10/23 14:14:02;;;;;;;2.00;1.80;;;19.40;99.90;;;;;;5018192;28;20861;-79
2022/10/23 14:16:47;;;;;;;2.10;2.00;;;19.40;99.90;;;;;;5018216;28;20530;-79
2022/10/23 14:19:33;;;;;;;2.20;1.87;;;19.40;99.90;;;;;;5017664;28;20527;-78
2022/10/23 14:22:18;;;;;;;1.80;1.70;;;19.40;99.90;;;;;;4990890;28;20482;-78
2022/10/23 14:25:04;;;;;;;2.60;2.40;;;19.70;99.90;;;;;;5031833;28;20457;-79
2022/10/23 14:27:48;;;;;;;2.37;2.13;;;20.10;99.90;;;;;;5057070;28;20467;-79
2022/10/23 14:30:36;;;;;;;2.00;1.90;;;20.50;99.90;;;;;;5042604;28;20453;-80
2022/10/23 14:33:20;;;;;;;2.10;1.83;;;20.70;99.90;;;;;;5097906;28;20533;-79
2022/10/23 14:36:05;;;;;;;3.70;1.97;;;21.00;99.90;;;;;;5097788;28;20396;-78
2022/10/23 14:38:49;;;;;;;5.73;1.90;;;21.40;99.90;;;;;;5099284;28;20428;-78
2022/10/23 14:41:33;;;;;;;1.90;1.80;;;21.90;99.90;;;;;;5098344;28;20447;-80
2022/10/23 14:44:18;;;;;;;2.43;2.23;;;21.50;99.90;;;;;;5098825;28;20473;-79